LFOT/TUF METAR and TAF weather

Enter ICAO airport designator
Station Type Date Time Source
LFOT METAR 2022/06/25 23:30 UTC NOAA

LFOT 252330Z AUTO 18006KT 9999 FEW035 BKN120 BKN210 14/12 Q1014 NOSIG


Station Type Date Time Source
LFOT Decoded METAR 2022/06/25 23:30 UTC NOAA

Tours, France (LFOT) 47-27N 000-43E 112M
Jun 25, 2022 - 07:30 PM EDT / 2022.06.25 2330 UTC
Wind: from the S (180 degrees) at 7 MPH (6 KT):0
Visibility: greater than 7 mile(s):0
Sky conditions: mostly cloudy
Temperature: 57 F (14 C)
Dew Point: 53 F (12 C)
Relative Humidity: 87%
Pressure (altimeter): 29.94 in. Hg (1014 hPa)
ob: LFOT 252330Z AUTO 18006KT 9999 FEW035 BKN120 BKN210 14/12 Q1014 NOSIG
cycle: 23

Station Type Date Time Source
LFOT TAF 2022/06/25 18:21 UTC NOAA

TAF LFOT 251700Z 2518/2618 20008KT CAVOK PROB30
TEMPO 2518/2520 4000 SHRA BKN020TCU PROB40
TEMPO 2602/2606 14004KT 2000 BR BKN003 PROB30
TEMPO 2602/2606 0600 FG VV///
BECMG 2608/2610 SCT040 PROB30
TEMPO 2614/2618 -SHRA FEW040TCU

Example: see airport list